Franconia, New Hampshire
Current Conditions -  °F | °C
As of 3:52 AM on Monday 20 Oct 2014 (Local Time) from KHIE Reporting Station
Overcast Overcast  
Wind Chill: 30°   Ceiling: 3800
Heat Index: 36°   Visibility: 10mi
Dew Point: 23°   Wind: 7mph
Humidity: 59%   Direction: 270°W
Pressure: 29.94"   Gusts: NA
Location:  44.23°N, 71.75°W
Report Text: KHIE 200752Z AUTO 27006KT 10SM OVC038 02/M05 A2994 RMK AO2 SLP149 T00221050
Loading
Personal Weather Stations






























Interactive Weather Map New forecast layout! Learn more

10-Day Weather Forecast

Advertisements
Track Severe Weather on mobile